地図

経路データ

SID SEASON NUMBER BASIN SUBBASIN NAME ISO_TIME NATURE LAT LON WMO_WIND WMO_PRES WMO_AGENCY TRACK_TYPE DIST2LAND LANDFALL IFLAG USA_AGENCY USA_ATCF_ID USA_LAT USA_LON USA_RECORD USA_STATUS USA_WIND USA_PRES USA_SSHS USA_R34_NE USA_R34_SE USA_R34_SW USA_R34_NW USA_R50_NE USA_R50_SE USA_R50_SW USA_R50_NW USA_R64_NE USA_R64_SE USA_R64_SW USA_R64_NW USA_POCI USA_ROCI USA_RMW USA_EYE TOKYO_LAT TOKYO_LON TOKYO_GRADE TOKYO_WIND TOKYO_PRES TOKYO_R50_DIR TOKYO_R50_LONG TOKYO_R50_SHORT TOKYO_R30_DIR TOKYO_R30_LONG TOKYO_R30_SHORT TOKYO_LAND CMA_LAT CMA_LON CMA_CAT CMA_WIND CMA_PRES HKO_LAT HKO_LON HKO_CAT HKO_WIND HKO_PRES NEWDELHI_LAT NEWDELHI_LON NEWDELHI_GRADE NEWDELHI_WIND NEWDELHI_PRES NEWDELHI_CI NEWDELHI_DP NEWDELHI_POCI REUNION_LAT REUNION_LON REUNION_TYPE REUNION_WIND REUNION_PRES REUNION_TNUM REUNION_CI REUNION_RMW REUNION_R34_NE REUNION_R34_SE REUNION_R34_SW REUNION_R34_NW REUNION_R50_NE REUNION_R50_SE REUNION_R50_SW REUNION_R50_NW REUNION_R64_NE REUNION_R64_SE REUNION_R64_SW REUNION_R64_NW BOM_LAT BOM_LON BOM_TYPE BOM_WIND BOM_PRES BOM_TNUM BOM_CI BOM_RMW BOM_R34_NE BOM_R34_SE BOM_R34_SW BOM_R34_NW BOM_R50_NE BOM_R50_SE BOM_R50_SW BOM_R50_NW BOM_R64_NE BOM_R64_SE BOM_R64_SW BOM_R64_NW BOM_ROCI BOM_POCI BOM_EYE BOM_POS_METHOD BOM_PRES_METHOD NADI_LAT NADI_LON NADI_CAT NADI_WIND NADI_PRES WELLINGTON_LAT WELLINGTON_LON WELLINGTON_WIND WELLINGTON_PRES DS824_LAT DS824_LON DS824_STAGE DS824_WIND DS824_PRES TD9636_LAT TD9636_LON TD9636_STAGE TD9636_WIND TD9636_PRES TD9635_LAT TD9635_LON TD9635_WIND TD9635_PRES TD9635_ROCI NEUMANN_LAT NEUMANN_LON NEUMANN_CLASS NEUMANN_WIND NEUMANN_PRES MLC_LAT MLC_LON MLC_CLASS MLC_WIND MLC_PRES USA_GUST BOM_GUST BOM_GUST_PER REUNION_GUST REUNION_GUST_PER USA_SEAHGT USA_SEARAD_NE USA_SEARAD_SE USA_SEARAD_SW USA_SEARAD_NW STORM_SPEED STORM_DIR
1939078S13148 1939 22 SP EA NOT_NAMED 1939-03-18 23:00:00 NR -13.1000 148.200 bom main 325 324 ______O___O___ -1 -13.1000 148.200 -13.1000 148.200 7 5 250
1939078S13148 1939 22 SP EA NOT_NAMED 1939-03-19 00:00:00 TS -13.1300 148.122 main 324 324 ______P__OP___ -1 -13.1344 148.119 -13.1000 148.100 TC -13.1406 148.136 7 5 245
1939078S13148 1939 22 SP EA NOT_NAMED 1939-03-19 03:00:00 TS -13.2384 147.897 main 336 321 ______P__PP___ -1 -13.2374 147.877 -13.2031 147.858 TC -13.2628 147.943 7 5 244
1939078S13148 1939 22 SP EA NOT_NAMED 1939-03-19 06:00:00 TS -13.3476 147.671 main 321 297 ______P__PP___ -1 -13.3399 147.637 -13.3058 147.618 TC -13.3866 147.746 7 5 244
1939078S13148 1939 22 SP EA NOT_NAMED 1939-03-19 09:00:00 TS -13.4542 147.441 main 281 273 ______P__PP___ -1 -13.4417 147.401 -13.4078 147.381 TC -13.5133 147.542 7 5 244
1939078S13148 1939 22 SP EA NOT_NAMED 1939-03-19 11:00:00 TS -13.5281 147.290 main 273 257 ______P__PO___ -1 -13.5089 147.246 -13.4753 147.225 TC -13.6000 147.400 7 5 243
1939078S13148 1939 22 SP EA NOT_NAMED 1939-03-19 12:00:00 TS -13.5651 147.215 main 257 233 ______P__PP___ -1 -13.5424 147.170 -13.5089 147.149 TC -13.6441 147.327 7 5 243
1939078S13148 1939 22 SP EA NOT_NAMED 1939-03-19 15:00:00 TS -13.6761 146.991 main 233 210 ______P__PP___ -1 -13.6420 146.947 -13.6089 146.923 TC -13.7775 147.102 7 5 243
1939078S13148 1939 22 SP EA NOT_NAMED 1939-03-19 18:00:00 TS -13.7851 146.770 main 210 186 ______P__PP___ -1 -13.7401 146.732 -13.7075 146.705 TC -13.9076 146.874 7 5 243
1939078S13148 1939 22 SP EA NOT_NAMED 1939-03-19 21:00:00 TS -13.8898 146.557 main 186 163 ______P__PP___ -1 -13.8366 146.529 -13.8046 146.497 TC -14.0281 146.647 7 5 243
1939078S13148 1939 22 SP EA NOT_NAMED 1939-03-19 23:00:00 TS -13.9561 146.421 1002 bom main 163 163 ______O__PO___ -1 -13.9000 146.400 1002 4 -13.8684 146.364 TC -14.1000 146.500 7 4 243
1939078S13148 1939 22 SP EA NOT_NAMED 1939-03-20 00:00:00 TS -13.9877 146.356 main 163 139 ______P__OP___ -1 -13.9314 146.338 -13.9000 146.300 TC 25 1002 -14.1317 146.431 7 4 244
1939078S13148 1939 22 SP EA NOT_NAMED 1939-03-20 03:00:00 TS -14.0778 146.168 main 139 116 ______P__PP___ -1 -14.0242 146.158 -13.9935 146.115 TC -14.2157 146.231 7 4 244
1939078S13148 1939 22 SP EA NOT_NAMED 1939-03-20 06:00:00 TS -14.1628 145.985 main 116 101 ______P__PP___ -1 -14.1153 145.984 -14.0852 145.938 TC -14.2881 146.035 7 4 245
1939078S13148 1939 22 SP EA NOT_NAMED 1939-03-20 09:00:00 TS -14.2449 145.802 main 101 86 ______P__PP___ -1 -14.2046 145.809 -14.1751 145.762 TC -14.3552 145.836 7 4 246
1939078S13148 1939 22 SP EA NOT_NAMED 1939-03-20 11:00:00 TS -14.2991 145.677 main 86 79 ______P__PO___ -1 -14.2632 145.689 -14.2341 145.643 TC -14.4000 145.700 7 4 246
1939078S13148 1939 22 SP EA NOT_NAMED 1939-03-20 12:00:00 TS -14.3260 145.615 main 79 59 ______P__PP___ -1 -14.2922 145.627 -14.2633 145.582 TC -14.4225 145.637 7 4 247
1939078S13148 1939 22 SP EA NOT_NAMED 1939-03-20 15:00:00 TS -14.4057 145.423 main 59 39 ______P__PP___ -1 -14.3783 145.432 -14.3499 145.391 TC -14.4888 145.446 7 4 248
1939078S13148 1939 22 SP EA NOT_NAMED 1939-03-20 18:00:00 TS -14.4854 145.213 main 39 15 ______P__PP___ -1 -14.4628 145.218 -14.4349 145.185 TC -14.5586 145.237 7 5 250
1939078S13148 1939 22 SP EA NOT_NAMED 1939-03-20 21:00:00 TS -14.5674 144.975 main 15 10 ______P__PP___ -1 -14.5456 144.978 -14.5183 144.956 TC -14.6383 144.992 7 5 251
1939078S13148 1939 22 SP EA NOT_NAMED 1939-03-20 23:00:00 TS -14.6243 144.796 bom main 10 0 ______O__PO___ -1 -14.6000 144.800 -14.5729 144.789 TC -14.7000 144.800 7 6 252
1939078S13148 1939 22 SP EA NOT_NAMED 1939-03-21 00:00:00 TS -14.6550 144.689 main 0 0 ______P__OP___ -1 -14.6288 144.679 -14.6000 144.700 TC -14.7363 144.689 7 7 255
1939078S13148 1939 22 SP EA NOT_NAMED 1939-03-21 03:00:00 TS -14.7523 144.311 main 0 0 ______P__PP___ -1 -14.7144 144.284 -14.6859 144.331 TC -14.8565 144.317 7 8 256
1939078S13148 1939 22 SP EA NOT_NAMED 1939-03-21 06:00:00 TS -14.8516 143.896 main 0 0 ______P__PP___ -1 -14.7980 143.858 -14.7702 143.926 TC -14.9866 143.905 7 8 256
1939078S13148 1939 22 SP EA NOT_NAMED 1939-03-21 09:00:00 TS -14.9493 143.468 main 0 0 ______P__PP___ -1 -14.8788 143.419 -14.8520 143.504 TC -15.1172 143.479 7 8 257
1939078S13148 1939 22 SP EA NOT_NAMED 1939-03-21 11:00:00 TS -15.0118 143.184 main 0 0 ______P__PO___ -1 -14.9307 143.130 -14.9047 143.222 TC -15.2000 143.200 7 8 257
1939078S13148 1939 22 SP EA NOT_NAMED 1939-03-21 12:00:00 TS -15.0419 143.044 main 0 0 ______P__PP___ -1 -14.9560 142.989 -14.9304 143.084 TC -15.2392 143.059 7 8 258
1939078S13148 1939 22 SP EA NOT_NAMED 1939-03-21 15:00:00 TS -15.1287 142.636 main 0 0 ______P__PP___ -1 -15.0290 142.587 -15.0049 142.684 TC -15.3523 142.638 7 8 257
1939078S13148 1939 22 SP EA NOT_NAMED 1939-03-21 18:00:00 TS -15.2095 142.265 main 0 0 ______P__PP___ -1 -15.0974 142.232 -15.0749 142.325 TC -15.4561 142.239 7 7 257
1939078S13148 1939 22 SP EA NOT_NAMED 1939-03-21 21:00:00 TS -15.2828 141.953 main 0 0 ______P__PP___ -1 -15.1607 141.944 -15.1401 142.024 TC -15.5475 141.890 7 6 256
1939078S13148 1939 22 SP EA NOT_NAMED 1939-03-21 23:00:00 TS -15.3269 141.788 bom main 0 0 ______O__PO___ -1 -15.2000 141.800 -15.1806 141.865 TC -15.6000 141.700 7 5 254
1939078S13148 1939 22 SP EA NOT_NAMED 1939-03-22 00:00:00 TS -15.3469 141.726 main 0 0 ______P__OP___ -1 -15.2186 141.756 -15.2000 141.800 TC -15.6220 141.622 7 3 247
1939078S13148 1939 22 SP EA NOT_NAMED 1939-03-22 03:00:00 TS -15.4007 141.604 main 0 0 ______P__PP___ -1 -15.2713 141.672 -15.2542 141.696 TC -15.6766 141.443 7 2 241
1939078S13148 1939 22 SP EA NOT_NAMED 1939-03-22 06:00:00 TS -15.4488 141.536 main 10 0 ______P__PP___ -1 -15.3205 141.636 -15.3044 141.647 TC -15.7215 141.326 7 1 228
1939078S13148 1939 22 SP EA NOT_NAMED 1939-03-22 09:00:00 TS -15.4955 141.496 main 0 0 ______P__PP___ -1 -15.3682 141.617 -15.3524 141.624 TC -15.7660 141.246 7 1 221
1939078S13148 1939 22 SP EA NOT_NAMED 1939-03-22 11:00:00 TS -15.5280 141.470 bom main 0 0 ______O__PO___ -1 -15.4000 141.600 -15.3840 141.610 TC -15.8000 141.200 7 1 222
1939078S13148 1939 22 SP EA NOT_NAMED 1939-03-22 12:00:00 TS -15.5462 141.449 main 10 10 ______P__OP___ -1 -15.4171 141.578 -15.4000 141.600 TC -15.8216 141.168 7 2 230
1939078S13148 1939 22 SP EA NOT_NAMED 1939-03-22 15:00:00 TS -15.6039 141.375 main 10 10 ______P__PP___ -1 -15.4684 141.508 -15.4513 141.533 TC -15.8921 141.084 7 2 231
1939078S13148 1939 22 SP EA NOT_NAMED 1939-03-22 18:00:00 TS -15.6634 141.301 main 21 21 ______P__PP___ -1 -15.5193 141.432 -15.5024 141.458 TC -15.9683 141.012 7 2 230
1939078S13148 1939 22 SP EA NOT_NAMED 1939-03-22 21:00:00 TS -15.7227 141.226 main 30 24 ______P__PP___ -1 -15.5685 141.353 -15.5523 141.380 TC -16.0474 140.945 7 2 230
1939078S13148 1939 22 SP EA NOT_NAMED 1939-03-22 23:00:00 TS -15.7615 141.176 bom main 24 24 ______O__PO___ -1 -15.6000 141.300 -15.5844 141.327 TC -16.1000 140.900 7 2 230
1939078S13148 1939 22 SP EA NOT_NAMED 1939-03-23 00:00:00 TS -15.7791 141.149 main 33 33 ______P__OP___ -1 -15.6124 141.274 -15.6000 141.300 TC -16.1250 140.874 7 2 239
1939078S13148 1939 22 SP EA NOT_NAMED 1939-03-23 03:00:00 TS -15.8262 141.070 main 33 33 ______P__PP___ -1 -15.6452 141.194 -15.6334 141.220 TC -16.2000 140.795 7 2 239
1939078S13148 1939 22 SP EA NOT_NAMED 1939-03-23 06:00:00 TS -15.8698 140.990 main 42 42 ______P__PP___ -1 -15.6735 141.113 -15.6610 141.140 TC -16.2750 140.717 7 2 241
1939078S13148 1939 22 SP EA NOT_NAMED 1939-03-23 09:00:00 TS -15.9122 140.912 main 53 53 ______P__PP___ -1 -15.7005 141.032 -15.6862 141.059 TC -16.3500 140.644 7 2 240
1939078S13148 1939 22 SP EA NOT_NAMED 1939-03-23 11:00:00 TS -15.9409 140.862 main 53 53 ______P__PO___ -1 -15.7194 140.979 -15.7034 141.006 TC -16.4000 140.600 7 2 238
1939078S13148 1939 22 SP EA NOT_NAMED 1939-03-23 12:00:00 TS -15.9544 140.837 main 64 64 ______P__PP___ -1 -15.7293 140.953 -15.7125 140.979 TC -16.4213 140.579 7 2 238
1939078S13148 1939 22 SP EA NOT_NAMED 1939-03-23 15:00:00 TS -15.9968 140.767 main 64 64 ______P__PP___ -1 -15.7630 140.878 -15.7436 140.902 TC -16.4837 140.520 7 2 235
1939078S13148 1939 22 SP EA NOT_NAMED 1939-03-23 18:00:00 TS -16.0462 140.701 main 74 72 ______P__PP___ -1 -15.8046 140.806 -15.7828 140.829 TC -16.5511 140.469 7 2 227
1939078S13148 1939 22 SP EA NOT_NAMED 1939-03-23 21:00:00 TS -16.1080 140.642 main 81 78 ______P__PP___ -1 -15.8572 140.740 -15.8338 140.762 TC -16.6329 140.425 7 2 218
1939078S13148 1939 22 SP EA NOT_NAMED 1939-03-23 23:00:00 TS -16.1587 140.607 bom main 78 78 ______O__PO___ -1 -15.9000 140.700 -15.8760 140.720 TC -16.7000 140.400 7 2 214
1939078S13148 1939 22 SP EA NOT_NAMED 1939-03-24 00:00:00 TS -16.1886 140.591 main 78 75 ______P__OP___ -1 -15.9247 140.685 -15.9000 140.700 TC -16.7412 140.390 7 2 204
1939078S13148 1939 22 SP EA NOT_NAMED 1939-03-24 03:00:00 TS -16.2935 140.555 main 75 75 ______P__PP___ -1 -16.0072 140.644 -15.9914 140.657 TC -16.8817 140.364 7 2 197
1939078S13148 1939 22 SP EA NOT_NAMED 1939-03-24 06:00:00 TS -16.4123 140.525 main 81 77 ______P__PP___ -1 -16.1012 140.610 -16.0976 140.621 TC -17.0381 140.343 7 3 194
1939078S13148 1939 22 SP EA NOT_NAMED 1939-03-24 09:00:00 TS -16.5398 140.496 main 77 69 ______P__PP___ -1 -16.2057 140.580 -16.2158 140.590 TC -17.1978 140.320 7 3 188
1939078S13148 1939 22 SP EA NOT_NAMED 1939-03-24 11:00:00 TS -16.6269 140.477 main 69 62 ______P__PO___ -1 -16.2806 140.560 -16.3001 140.570 TC -17.3000 140.300 7 3 199
1939078S13148 1939 22 SP EA NOT_NAMED 1939-03-24 12:00:00 TS -16.6694 140.465 main 62 62 ______P__PP___ -1 -16.3196 140.550 -16.3436 140.560 TC -17.3450 140.285 7 3 194
1939078S13148 1939 22 SP EA NOT_NAMED 1939-03-24 15:00:00 TS -16.7983 140.427 main 67 64 ______P__PP___ -1 -16.4418 140.518 -16.4785 140.529 TC -17.4746 140.236 7 3 197
1939078S13148 1939 22 SP EA NOT_NAMED 1939-03-24 18:00:00 TS -16.9291 140.386 main 64 63 ______P__PP___ -1 -16.5712 140.481 -16.6179 140.494 TC -17.5983 140.182 7 3 198
1939078S13148 1939 22 SP EA NOT_NAMED 1939-03-24 21:00:00 TS -17.0618 140.339 main 64 64 ______P__PP___ -1 -16.7067 140.436 -16.7592 140.452 TC -17.7193 140.130 7 3 198
1939078S13148 1939 22 SP EA NOT_NAMED 1939-03-24 23:00:00 TS -17.1511 140.306 bom main 54 54 ______O__PO___ -1 -16.8000 140.400 -16.8533 140.419 TC -17.8000 140.100 7 3 197
1939078S13148 1939 22 SP EA NOT_NAMED 1939-03-25 00:00:00 TS -17.1980 140.289 main 54 44 ______P__OP___ -1 -16.8499 140.375 -16.9000 140.400 TC -17.8441 140.092 7 3 200
1939078S13148 1939 22 SP EA NOT_NAMED 1939-03-25 03:00:00 TS -17.3411 140.233 main 44 22 ______P__PP___ -1 -17.0059 140.292 -17.0398 140.334 TC -17.9775 140.075 7 3 202
1939078S13148 1939 22 SP EA NOT_NAMED 1939-03-25 06:00:00 TS -17.4852 140.173 main 22 11 ______P__PP___ -1 -17.1668 140.202 -17.1813 140.259 TC -18.1076 140.059 7 3 203
1939078S13148 1939 22 SP EA NOT_NAMED 1939-03-25 09:00:00 TS -17.6253 140.106 main 11 0 ______P__PP___ -1 -17.3266 140.111 -17.3213 140.177 TC -18.2281 140.031 7 3 206
1939078S13148 1939 22 SP EA NOT_NAMED 1939-03-25 11:00:00 TS -17.7138 140.057 main 0 0 ______P__PO___ -1 -17.4293 140.052 -17.4122 140.119 TC -18.3000 140.000 7 3 208
1939078S13148 1939 22 SP EA NOT_NAMED 1939-03-25 12:00:00 TS -17.7557 140.030 main 0 0 ______P__PP___ -1 -17.4790 140.023 -17.4565 140.089 TC -18.3317 139.978 7 3 213
1939078S13148 1939 22 SP EA NOT_NAMED 1939-03-25 15:00:00 TS -17.8725 139.946 main 0 0 ______P__PP___ -1 -17.6179 139.945 -17.5838 139.997 TC -18.4158 139.896 7 3 216
1939078S13148 1939 22 SP EA NOT_NAMED 1939-03-25 17:00:00 TS -17.9426 139.888 bom main 0 0 ______O__PP___ -1 -17.7000 139.900 -17.6627 139.933 TC -18.4650 139.830 7 3 219
1939078S13148 1939 22 SP EA NOT_NAMED 1939-03-25 18:00:00 TS -17.9746 139.860 main 0 0 ______P__OP___ -1 -17.7357 139.884 -17.7000 139.900 TC -18.4882 139.794 7 3 218
1939078S13148 1939 22 SP EA NOT_NAMED 1939-03-25 21:00:00 TS -18.0881 139.772 main 0 0 ______P__PP___ -1 -17.8349 139.839 -17.8029 139.807 TC -18.5552 139.680 7 3 215
1939078S13148 1939 22 SP EA NOT_NAMED 1939-03-25 23:00:00 TS -18.1736 139.708 bom main 0 0 ______O__PO___ -1 -17.9000 139.800 -17.8679 139.738 TC -18.6000 139.600 7 4 214
1939078S13148 1939 22 SP EA NOT_NAMED 1939-03-26 00:00:00 TS -18.2391 139.672 main 0 0 ______P__OP___ -1 -17.9368 139.777 -17.9000 139.700 TC -18.6262 139.560 7 4 213
1939078S13148 1939 22 SP EA NOT_NAMED 1939-03-26 03:00:00 NR -18.3798 139.564 main 0 0 ______P__PP___ -1 -18.0542 139.691 -17.9970 139.572 TC -18.7055 139.436 7 3 222
1939078S13148 1939 22 SP EA NOT_NAMED 1939-03-26 06:00:00 NR -18.4814 139.444 main 0 0 ______P__PP___ -1 -18.1799 139.582 -18.0949 139.421 TC -18.7830 139.307 7 3 229
1939078S13148 1939 22 SP EA NOT_NAMED 1939-03-26 09:00:00 NR -18.5833 139.314 main 0 0 ______P__PP___ -1 -18.3109 139.448 -18.1937 139.250 TC -18.8557 139.180 7 3 231
1939078S13148 1939 22 SP EA NOT_NAMED 1939-03-26 11:00:00 NR -18.6498 139.223 main 0 0 ______P__PO___ -1 -18.3995 139.346 -18.2599 139.126 TC -18.9000 139.100 7 3 231
1939078S13148 1939 22 SP EA NOT_NAMED 1939-03-26 12:00:00 NR -18.6819 139.183 main 0 0 ______P__PP___ -1 -18.4439 139.291 -18.2931 139.060 TC -18.9199 139.076 7 3 231
1939078S13148 1939 22 SP EA NOT_NAMED 1939-03-26 15:00:00 NR -18.7751 139.060 main 0 0 ______P__PP___ -1 -18.5761 139.108 -18.3931 138.852 TC -18.9742 139.013 7 3 234
1939078S13148 1939 22 SP EA NOT_NAMED 1939-03-26 18:00:00 NR -18.8634 138.920 main 0 0 ______P__PP___ -1 -18.7041 138.901 -18.4936 138.628 TC -19.0228 138.940 7 3 240
1939078S13148 1939 22 SP EA NOT_NAMED 1939-03-26 21:00:00 NR -18.9470 138.745 main 0 0 ______P__PP___ -1 -18.8250 138.669 -18.5945 138.388 TC -19.0690 138.821 7 4 246
1939078S13148 1939 22 SP EA NOT_NAMED 1939-03-26 23:00:00 NR -19.0000 138.600 bom main 0 0 ______O__PO___ -1 -18.9000 138.500 -18.6618 138.221 TC -19.1000 138.700 7 5 250
1939078S13148 1939 22 SP EA NOT_NAMED 1939-03-27 00:00:00 NR -19.0255 138.515 main 0 0 ______P__PP___ -1 -18.9355 138.411 -18.6955 138.135 TC -19.1155 138.619 7 6 255
1939078S13148 1939 22 SP EA NOT_NAMED 1939-03-27 03:00:00 NR -19.0979 138.227 main 0 0 ______P__PP___ -1 -19.0344 138.130 -18.7967 137.870 TC -19.1614 138.323 7 6 257
1939078S13148 1939 22 SP EA NOT_NAMED 1939-03-27 06:00:00 NR -19.1658 137.896 main 0 0 ______P__PP___ -1 -19.1226 137.828 -18.8979 137.595 TC -19.2089 137.965 7 7 258
1939078S13148 1939 22 SP EA NOT_NAMED 1939-03-27 09:00:00 NR -19.2314 137.539 main 0 0 ______P__PP___ -1 -19.2017 137.507 -18.9990 137.310 TC -19.2610 137.571 7 7 259
1939078S13148 1939 22 SP EA NOT_NAMED 1939-03-27 11:00:00 NR -19.2750 137.292 main 0 0 ______P__PO___ -1 -19.2500 137.284 -19.0663 137.116 TC -19.3000 137.300 7 7 259
1939078S13148 1939 22 SP EA NOT_NAMED 1939-03-27 12:00:00 NR -19.2971 137.168 main 0 0 ______P__PP___ -1 -19.2730 137.171 -19.0999 137.018 TC -19.3211 137.165 7 7 259
1939078S13148 1939 22 SP EA NOT_NAMED 1939-03-27 15:00:00 NR -19.3642 136.793 main 0 0 ______P__PP___ -1 -19.3380 136.823 -19.2006 136.719 TC -19.3904 136.762 7 7 260
1939078S13148 1939 22 SP EA NOT_NAMED 1939-03-27 18:00:00 NR -19.4273 136.422 main 0 0 ______P__PP___ -1 -19.3980 136.467 -19.3008 136.415 TC -19.4663 136.362 7 7 260
1939078S13148 1939 22 SP EA NOT_NAMED 1939-03-27 21:00:00 NR -19.4911 136.048 main 0 0 ______P__PP___ -1 -19.4545 136.104 -19.4007 136.109 TC -19.5461 135.965 7 7 260
1939078S13148 1939 22 SP EA NOT_NAMED 1939-03-27 23:00:00 NR -19.5273 135.807 main 0 0 ______P__PO___ -1 -19.4910 135.861 -19.4669 135.903 TC -19.6000 135.700 7 6 268
1939078S13148 1939 22 SP EA NOT_NAMED 1939-03-27 23:30:00 NR -19.5000 135.800 bom main 0 0 ______O__P____ -1 -19.5000 135.800 -19.4835 135.851 TC 7 2 0
1939078S13148 1939 22 SP EA NOT_NAMED 1939-03-28 00:00:00 TS -19.5000 135.800 main 0 _________O____ -1 -19.5000 135.800 TC 7 0 0

デジタル台風データ・検索

IBTrACS Databaseについて

本データベースは、米国NOAAが公開する1842年以降の世界の熱帯低気圧のベストトラックデータアーカイブInternational Best Track Archive for Climate Stewardship (IBTrACS)を、ウェブで閲覧しやすい形式に変換したものです。

最終更新日:2021-12-01